Tiempo atmosférico en la estación meteorológica de Azuaga, Badajoz (550 m.)

Fecha
DESCASC
Temp. máxima en grados centígrados (hora)
DESCASC
Temp. mínima en grados centígrados (hora)
DESCASC
Temp. media en grados centígrados
DESCASC
Racha de viento máxima en m/sg (hora)
DESCASC
Velocidad máxima media en intervalos de 10 minutos(hora)
DESCASC
Precipitaciones diarias en mm
DESCASC
Precipitaciones de 00:00 a 06:00 en mm
DESCASC
Precipitaciones de 06:00 a 12:00 en mm
DESCASC
Precipitaciones de 12:00 a 18:00 en mm
DESCASC
Precipitaciones de 18:00 a 24:00 en mm
DESCASC
21-08-2017 36.6 (17:50) 21.4 (08:00) 29 6.94 (13:00) 4.44 (23:59) 0 0 0 0 0
20-08-2017 38.6 (18:30) 22.7 (07:40) 30.6 7.5 (15:50) 4.17 (09:20) 0 0 0 0 0
19-08-2017 38.8 (18:10) 20.1 (07:50) 29.4 10.56 (18:10) 4.72 (00:20) 0 0 0 0 0
18-08-2017 38.1 (18:10) 20.7 (07:10) 29.4 11.11 (19:00) 6.39 (20:00) 0 0 0 0 0
17-08-2017 37.2 (16:10) 18.8 (00:00) 28 8.33 (17:40) 4.17 (17:40) 0 0 0 0 0
16-08-2017 34.7 (17:10) 16.8 (00:00) 25.8 8.61 (18:10) 4.72 (00:50) 0 0 0 0 0
15-08-2017 36.2 (16:10) 20.6 (00:00) 28.4 9.72 (20:00) 6.94 (20:00) 0 0 0 0 0
14-08-2017 34.9 (18:50) 20 (08:00) 27.5 8.89 (14:00) 4.17 (12:00) 0 0 0 0 0
13-08-2017 35.4 (18:40) 19.9 (00:00) 27.7 8.33 (15:10) 3.89 (05:10) 0 0 0 0 0
12-08-2017 34.9 (17:50) 19.1 (00:00) 27 6.39 (16:50) 3.89 (16:50) 0 0 0 0 0
11-08-2017 33.4 (18:10) 16.5 (00:00) 25 8.06 (19:30) 4.72 (19:20) 0 0 0 0 0
10-08-2017 30.4 (17:30) 17 (00:00) 23.7 10.56 (09:50) 5.56 (09:50) 0 0 0 0 0
09-08-2017 30 (16:30) 13.5 (00:00) 21.8 10.56 (17:40) 6.39 (18:20) 0 0 0 0 0
08-08-2017 30.2 (17:10) 13.9 (00:00) 22.1 10.56 (18:10) 6.94 (01:20) 0 0 0 0 0
07-08-2017 38.6 (16:30) 20.4 (00:00) 29.5 12.78 (20:00) 8.61 (19:10) 0 0 0 0 0
06-08-2017 38.8 (16:50) 17.5 (00:00) 28.1 11.11 (17:40) 6.39 (18:00) 0 0 0 0 0
05-08-2017 38.9 (16:40) 22.4 (00:00) 30.7 12.22 (18:30) 6.94 (18:50) 0 0 0 0 0
04-08-2017 39.4 (17:10) 21.5 (00:00) 30.5 8.33 (18:20) 5 (19:10) 0 0 0 0 0
03-08-2017 36.9 (17:50) 17.4 (00:00) 27.2 9.44 (15:40) 5 (20:30) 0 0 0 0 0
02-08-2017 34.6 (19:10) 14.7 (00:00) 24.6 9.17 (18:00) 5 (00:20) 0 0 0 0 0
01-08-2017 31.1 (18:10) 17.4 (00:00) 24.3 9.17 (00:30) 5.83 (00:30) 0 0 0 0 0
31-07-2017 34.5 (17:40) 16.1 (00:00) 25.3 11.11 (18:50) 7.22 (21:50) 0 0 0 0 0
30-07-2017 37.2 (17:00) 20.7 (00:00) 29 9.17 (17:30) 5.56 (19:30) 0 0 0 0 0
29-07-2017 37.5 (18:10) 18.6 (00:00) 28.1 8.89 (15:40) 5.56 (15:30) 0 0 0 0 0
28-07-2017 38.1 (17:10) 18.2 (00:00) 28.1 8.06 (16:10) 5 (18:20) 0 0 0 0 0
27-07-2017 37.9 (17:00) 21.4 (00:00) 29.7 8.89 (17:00) 5.83 (19:50) 0 0 0 0 0
26-07-2017 35.4 (18:20) 19.9 (00:00) 27.7 6.67 (16:50) 4.17 (21:20) 0 0 0 0 0
25-07-2017 36 (16:30) 18.4 (00:00) 27.2 9.17 (19:10) 5 (19:10) 0 0 0 0 0
24-07-2017 34.4 (17:40) 18.4 (00:00) 26.4 10.56 (17:00) 6.11 (17:10) 0 0 0 0 0
23-07-2017 34.4 (17:30) 15.4 (00:00) 24.9 8.61 (17:20) 5.28 (20:40) 0 0 0 0 0

Gráficas

Temp. máximas Temp. mínimas Temp. medias Precipitaciones Rachas de viento máximas Velocidades máximas media en intervalos de 10 minutos

Datos horarios

Fecha y hora oficial Temperatura (ºC) Velocidad del viento (km/h) Dirección del viento Racha (km/h) Dirección de racha Precipitación (mm) Presión (hPa) Tendencia (hPa) Humedad (%)
2017-08-21 23:00:00 29.3 9 Sudoeste 17 Sur 0 -- -- 35
2017-08-21 22:00:00 31.4 8 Sur 13 Sur 0 -- -- 28
2017-08-21 21:00:00 33.8 6 Sur 15 Sur 0 -- -- 24
2017-08-21 20:00:00 36 6 Sur 19 Sur 0 -- -- 21
2017-08-21 19:00:00 36.6 10 Sudoeste 19 Sudoeste 0 -- -- 22
2017-08-21 18:00:00 36.4 7 Este 19 Sur 0 -- -- 23
2017-08-21 17:00:00 36.1 12 Sudeste 22 Sur 0 -- -- 25
2017-08-21 16:00:00 35.5 11 Sur 21 Sudoeste -- -- -- 27
2017-08-21 15:00:00 34.6 8 Sudeste 19 Sur 0 -- -- 26
2017-08-21 14:00:00 33.3 10 Sur 22 Sur 0 -- -- 31
2017-08-21 13:00:00 31.3 14 Sudeste 25 Sudeste 0 -- -- 35
2017-08-21 12:00:00 29.4 10 Sudeste 23 Sudeste 0 -- -- 44
2017-08-21 11:00:00 27.6 10 Sudeste 23 Sudeste 0 -- -- 52
2017-08-21 10:00:00 24.7 12 Sudeste 19 Sudeste 0 -- -- 63
2017-08-21 09:00:00 22.6 11 Sudeste 19 Sudeste 0 -- -- 70
2017-08-21 08:00:00 21.4 12 Sudeste 23 Sudeste 0 -- -- 73
2017-08-21 07:00:00 22 14 Sudeste 21 Sudeste 0 -- -- 69
2017-08-21 06:00:00 22.9 14 Sudeste 21 Sudeste 0 -- -- 65
2017-08-21 05:00:00 23.6 11 Sudeste 21 Sudeste 0 -- -- 60
2017-08-21 04:00:00 24.2 9 Sudeste 18 Sudeste 0 -- -- 56
2017-08-21 03:00:00 24.9 12 Sudeste 19 Sur 0 -- -- 51
2017-08-21 02:00:00 26.6 6 Sudeste 11 Sudeste 0 -- -- 43
2017-08-21 01:00:00 28.1 7 Sudeste 13 Sudeste 0 -- -- 39
2017-08-21 00:00:00 29.6 8 Sudeste 14 Sur 0 -- -- 36
2017-08-20 23:00:00 30.9 8 Sur 12 Sur 0 -- -- 33
2017-08-20 22:00:00 32.7 8 Sur 16 Sur 0 -- -- 28
2017-08-20 21:00:00 34.5 10 Sur 21 Sur 0 -- -- 25
2017-08-20 20:00:00 37.1 10 Sur 20 Sudeste 0 -- -- 21
2017-08-20 19:00:00 37.8 10 Sudeste 18 Sudeste 0 -- -- 20
2017-08-20 18:00:00 38 8 Este 22 Sur 0 -- -- 19
2017-08-20 17:00:00 37.8 9 Sudeste 27 Sudeste 0 -- -- 21
2017-08-20 16:00:00 37.3 14 Este 27 Sudeste 0 -- -- 20
2017-08-20 15:00:00 36.5 10 Sudeste 25 Sur 0 -- -- 24
2017-08-20 14:00:00 35.6 11 Sudeste 23 Este 0 -- -- 25
2017-08-20 13:00:00 34 12 Sudeste 25 Este 0 -- -- 28
2017-08-20 12:00:00 32 12 Sudeste 21 Sudeste 0 -- -- 31
2017-08-20 11:00:00 28.9 12 Sudeste 19 Sudeste 0 -- -- 39
2017-08-20 10:00:00 25 12 Sudeste 23 Sudeste 0 -- -- 48
2017-08-20 09:00:00 23.7 13 Sudeste 21 Sudeste 0 -- -- 53
2017-08-20 08:00:00 22.8 13 Sudeste 20 Sudeste 0 -- -- 56
2017-08-20 07:00:00 22.9 13 Sudeste 21 Sudeste 0 -- -- 56
2017-08-20 06:00:00 23.5 14 Sudeste 21 Sudeste 0 -- -- 53
2017-08-20 05:00:00 24 12 Sudeste 20 Sudeste 0 -- -- 47
2017-08-20 04:00:00 26.5 6 Sur 15 Sudeste 0 -- -- 26
2017-08-20 03:00:00 27.3 2 Oeste 4 Noroeste 0 -- -- 26
2017-08-20 02:00:00 28 3 Oeste 5 Oeste 0 -- -- 24
2017-08-20 01:00:00 28.8 3 Oeste 6 Oeste 0 -- -- 21
2017-08-20 00:00:00 29 4 Oeste 5 Oeste 0 -- -- 21
2017-08-19 23:00:00 30 0 Calma 8 Norte 0 -- -- 21
2017-08-19 22:00:00 31.7 6 Nordeste 15 Noroeste 0 -- -- 22
2017-08-19 21:00:00 34.6 11 Noroeste 27 Noroeste 0 -- -- 20
2017-08-19 20:00:00 36.6 17 Noroeste 28 Noroeste 0 -- -- 20
2017-08-19 19:00:00 37.8 11 Noroeste 38 Noroeste 0 -- -- 19
2017-08-19 18:00:00 38.6 8 Sudoeste 23 Noroeste 0 -- -- 17
2017-08-19 17:00:00 38.2 13 Noroeste 33 Sudoeste 0 -- -- 18
2017-08-19 16:00:00 37.9 8 Norte 19 Noroeste 0 -- -- 19
2017-08-19 15:00:00 37 6 Noroeste 17 Nordeste 0 -- -- 20
2017-08-19 14:00:00 35.9 5 Norte 17 Sudoeste 0 -- -- 21
2017-08-19 13:00:00 34.2 5 Norte 9 Nordeste 0 -- -- 22
2017-08-19 12:00:00 32.1 3 Norte 8 Norte 0 -- -- 28
2017-08-19 11:00:00 28.3 4 Noroeste 14 Noroeste -- -- -- 39
2017-08-19 10:00:00 25 9 Noroeste 19 Noroeste 0 -- -- 50
2017-08-19 09:00:00 21.8 10 Noroeste 15 Noroeste 0 -- -- 57
2017-08-19 08:00:00 20.1 7 Oeste 12 Noroeste 0 -- -- 62
2017-08-19 07:00:00 20.5 10 Oeste 20 Noroeste 0 -- -- 60
2017-08-19 06:00:00 21.4 10 Oeste 19 Noroeste 0 -- -- 56
2017-08-19 05:00:00 22 12 Noroeste 17 Oeste 0 -- -- 52
2017-08-19 04:00:00 22.4 9 Noroeste 19 Noroeste 0 -- -- 48
2017-08-19 03:00:00 23.6 14 Noroeste 23 Oeste 0 -- -- 43
2017-08-19 02:00:00 24.6 16 Noroeste 22 Noroeste 0 -- -- 40
2017-08-19 01:00:00 25.7 14 Noroeste 24 Noroeste 0 -- -- 35
2017-08-19 00:00:00 27 13 Noroeste 17 Noroeste 0 -- -- 28
2017-08-18 23:00:00 28.3 7 Oeste 11 Noroeste 0 -- -- 26
2017-08-18 22:00:00 30.2 7 Noroeste 20 Noroeste 0 -- -- 25
2017-08-18 21:00:00 33.3 17 Noroeste 31 Noroeste 0 -- -- 23
2017-08-18 20:00:00 35.2 23 Noroeste 34 Noroeste 0 -- -- 22
2017-08-18 19:00:00 36.5 22 Noroeste 40 Noroeste 0 -- -- 21
2017-08-18 18:00:00 38 11 Oeste 27 Oeste 0 -- -- 18
2017-08-18 17:00:00 37.9 12 Oeste 27 Oeste 0 -- -- 19
2017-08-18 16:00:00 37.8 12 Sudoeste 23 Noroeste 0 -- -- 20
2017-08-18 15:00:00 36.6 11 Oeste 26 Oeste 0 -- -- 21
2017-08-18 14:00:00 35.5 10 Oeste 26 Oeste 0 -- -- 23
2017-08-18 13:00:00 34.2 3 Sudoeste 17 Oeste 0 -- -- 26
2017-08-18 12:00:00 32.2 4 Sur 10 Sudoeste 0 -- -- 31
2017-08-18 11:00:00 28.9 4 Noroeste 10 Noroeste 0 -- -- 36
2017-08-18 10:00:00 26.7 4 Oeste 9 Oeste 0 -- -- 39
2017-08-18 09:00:00 23.8 7 Sur 13 Sur 0 -- -- 40
2017-08-18 08:00:00 21.9 6 Sur 15 Sur 0 -- -- 42
2017-08-18 07:00:00 21.5 2 Noroeste 8 Sur 0 -- -- 46
2017-08-18 06:00:00 22.5 8 Sur 9 Sudoeste 0 -- -- 46
2017-08-18 05:00:00 23.3 7 Sudoeste 15 Oeste 0 -- -- 43
2017-08-18 04:00:00 24 12 Oeste 15 Oeste 0 -- -- 42
2017-08-18 03:00:00 24.8 8 Oeste 14 Noroeste 0 -- -- 37
2017-08-18 02:00:00 25.9 9 Oeste 17 Oeste 0 -- -- 30
2017-08-18 01:00:00 28.9 5 Oeste 6 Oeste 0 -- -- 26
2017-08-18 00:00:00 28.7 3 Oeste 6 Sudoeste 0 -- -- 25
2017-08-17 23:00:00 30.2 5 Sur 16 Sudeste 0 -- -- 24
2017-08-17 22:00:00 30.2 8 Noroeste 16 Noroeste 0 -- -- 24
2017-08-17 21:00:00 33.7 8 Noroeste 17 Noroeste 0 -- -- 19
2017-08-17 20:00:00 36.1 12 Noroeste 27 Noroeste 0 -- -- 17
2017-08-17 19:00:00 36.9 10 Norte 25 Norte 0 -- -- 16
2017-08-17 18:00:00 36.9 8 Norte 30 Noroeste 0 -- -- 16
2017-08-17 17:00:00 37.1 7 Nordeste 23 Noroeste 0 -- -- 16
2017-08-17 16:00:00 36.9 12 Noroeste 23 Noroeste 0 -- -- 16
2017-08-17 15:00:00 36 9 Noroeste 20 Noroeste 0 -- -- 16
2017-08-17 14:00:00 35.4 5 Sudoeste 17 Sudoeste 0 -- -- 16
2017-08-17 13:00:00 34.2 6 Noroeste 15 Oeste 0 -- -- 18
2017-08-17 12:00:00 31.8 4 Noroeste 10 Noroeste 0 -- -- 21
2017-08-17 11:00:00 28.6 3 Noroeste 9 Noroeste 0 -- -- 30
2017-08-17 10:00:00 24.7 8 Noroeste 12 Oeste 0 -- -- 41
2017-08-17 09:00:00 21.4 7 Oeste 13 Oeste 0 -- -- 48
2017-08-17 08:00:00 19 6 Oeste 12 Oeste 0 -- -- 52
2017-08-17 07:00:00 19.6 10 Oeste 12 Oeste 0 -- -- 49
2017-08-17 06:00:00 19.8 4 Oeste 10 Oeste 0 -- -- 47
2017-08-17 05:00:00 20.8 8 Oeste 12 Oeste 0 -- -- 43
2017-08-17 04:00:00 21.7 9 Oeste 15 Oeste 0 -- -- 43
2017-08-17 03:00:00 21.8 9 Oeste 17 Oeste 0 -- -- 37
2017-08-17 02:00:00 22.8 12 Noroeste 17 Noroeste 0 -- -- 33
2017-08-17 01:00:00 24 10 Oeste 15 Noroeste 0 -- -- 25
2017-08-17 00:00:00 25.4 7 Oeste 10 Oeste 0 -- -- 23
2017-08-16 23:00:00 25.5 5 Oeste 12 Noroeste 0 -- -- 22
2017-08-16 22:00:00 27.6 9 Noroeste 15 Noroeste 0 -- -- 21
2017-08-16 21:00:00 31.1 14 Noroeste 22 Noroeste 0 -- -- 18
2017-08-16 20:00:00 33.4 16 Noroeste 23 Oeste 0 -- -- 16
2017-08-16 19:00:00 34.2 14 Noroeste 31 Norte 0 -- -- 15
2017-08-16 18:00:00 34.7 10 Noroeste 29 Oeste 0 -- -- 15
2017-08-16 17:00:00 34.6 9 Oeste 25 Noroeste 0 -- -- 15
2017-08-16 16:00:00 33.9 14 Noroeste 31 Noroeste 0 -- -- 12
2017-08-16 15:00:00 33.1 13 Noroeste 29 Noroeste 0 -- -- 15
2017-08-16 14:00:00 32.1 9 Noroeste 23 Noroeste 0 -- -- 14
2017-08-16 13:00:00 30.3 10 Noroeste 17 Noroeste 0 -- -- 18
2017-08-16 12:00:00 28.3 5 Oeste 10 Noroeste 0 -- -- 28
2017-08-16 11:00:00 24.6 4 Oeste 13 Oeste 0 -- -- 40
2017-08-16 10:00:00 21.1 7 Noroeste 13 Noroeste 0 -- -- 50
2017-08-16 09:00:00 18.3 7 Noroeste 19 Noroeste 0 -- -- 58
2017-08-16 08:00:00 16.8 12 Noroeste 18 Noroeste 0 -- -- 60
2017-08-16 07:00:00 17 7 Noroeste 12 Noroeste 0 -- -- 58
2017-08-16 06:00:00 18 8 Noroeste 10 Noroeste 0 -- -- 54
2017-08-16 05:00:00 18.4 8 Oeste 18 Oeste 0 -- -- 50
2017-08-16 04:00:00 19 12 Noroeste 17 Noroeste 0 -- -- 46
2017-08-16 03:00:00 20.2 7 Noroeste 17 Noroeste 0 -- -- 40
2017-08-16 02:00:00 22.1 5 Noroeste 24 Noroeste 0 -- -- 35
2017-08-16 01:00:00 23.5 17 Noroeste 22 Noroeste 0 -- -- 29
2017-08-16 00:00:00 24.7 5 Oeste 27 Noroeste 0 -- -- 29
2017-08-15 23:00:00 26.6 13 Noroeste 24 Noroeste 0 -- -- 27
2017-08-15 22:00:00 29.2 17 Noroeste 29 Noroeste 0 -- -- 24
2017-08-15 21:00:00 31.4 20 Noroeste 32 Noroeste 0 -- -- 20
2017-08-15 20:00:00 33.4 25 Noroeste 35 Noroeste 0 -- -- 19
2017-08-15 19:00:00 34.8 17 Noroeste 32 Noroeste 0 -- -- 18
2017-08-15 18:00:00 35.5 19 Noroeste 29 Noroeste 0 -- -- 17
2017-08-15 17:00:00 35.4 14 Noroeste 26 Noroeste 0 -- -- 17
2017-08-15 16:00:00 35.8 11 Noroeste 24 Noroeste 0 -- -- 17
2017-08-15 15:00:00 34.6 13 Noroeste 24 Oeste 0 -- -- 19
2017-08-15 14:00:00 34.3 8 Oeste 19 Oeste 0 -- -- 21
2017-08-15 13:00:00 32.8 6 Sudoeste 16 Sudoeste 0 -- -- 25
2017-08-15 12:00:00 29.7 4 Sur 12 Sudeste 0 -- -- 33
2017-08-15 11:00:00 27.4 5 Sur 11 Sudeste 0 -- -- 41
2017-08-15 10:00:00 25.3 4 Sudeste 8 Sudeste 0 -- -- 48
2017-08-15 09:00:00 22.1 0 Calma 12 Sudeste 0 -- -- 57
2017-08-15 08:00:00 20.8 9 Sudeste 13 Sudeste 0 -- -- 61
2017-08-15 07:00:00 21.3 9 Sudeste 12 Sur 0 -- -- 60
2017-08-15 06:00:00 21.7 7 Sur 10 Sudeste 0 -- -- 57
2017-08-15 05:00:00 22.4 4 Sur 11 Sudoeste 0 -- -- 44
2017-08-15 04:00:00 23.1 8 Sur 13 Sudoeste 0 -- -- 41
2017-08-15 03:00:00 23.2 10 Oeste 13 Sudoeste 0 -- -- 39
2017-08-15 02:00:00 24.1 9 Oeste 17 Noroeste 0 -- -- 37
2017-08-15 01:00:00 26 10 Oeste 18 Oeste 0 -- -- 34
2017-08-15 00:00:00 27.2 10 Oeste 12 Oeste 0 -- -- 33
2017-08-14 23:00:00 28.6 11 Sudoeste 18 Sudoeste 0 -- -- 31
2017-08-14 22:00:00 29.8 8 Sudoeste 12 Sur 0 -- -- 30
2017-08-14 21:00:00 32.2 9 Sudoeste 21 Sudoeste 0 -- -- 28
2017-08-14 20:00:00 34.1 10 Sudoeste 21 Sudoeste 0 -- -- 26
2017-08-14 19:00:00 34.6 12 Sudoeste 22 Sur 0 -- -- 26
2017-08-14 18:00:00 34.7 7 Oeste 21 Sur 0 -- -- 26
2017-08-14 17:00:00 34.5 10 Sudeste 24 Este 0 -- -- 26
2017-08-14 16:00:00 34 12 Sudeste 25 Sur 0 -- -- 25
2017-08-14 15:00:00 33.5 10 Sur 23 Sur 0 -- -- 25
2017-08-14 14:00:00 32.6 14 Sudeste 32 Sudeste 0 -- -- 26
2017-08-14 13:00:00 31.1 13 Sudeste 24 Sudeste 0 -- -- 34
2017-08-14 12:00:00 28.9 15 Sudeste 22 Sudeste 0 -- -- 39
2017-08-14 11:00:00 26.8 13 Sudeste 23 Sudeste 0 -- -- 43
2017-08-14 10:00:00 25.2 8 Sudeste 14 Sudeste 0 -- -- 45
2017-08-14 09:00:00 21.7 4 Este 10 Este 0 -- -- 58
2017-08-14 08:00:00 20 5 Este 10 Sudeste 0 -- -- 63
2017-08-14 07:00:00 20.4 8 Sudeste 16 Sudeste 0 -- -- 62
2017-08-14 06:00:00 20.7 10 Sudeste 21 Sudeste 0 -- -- 60
2017-08-14 05:00:00 21.4 14 Sudeste 21 Sudeste 0 -- -- 57
2017-08-14 04:00:00 22 13 Sudeste 21 Sudeste 0 -- -- 54
2017-08-14 03:00:00 23 13 Sudeste 23 Sudeste 0 -- -- 49
2017-08-14 02:00:00 24 8 Sudeste 21 Sudeste 0 -- -- 41
2017-08-14 01:00:00 25.7 10 Sur 19 Sudeste 0 -- -- 29
2017-08-14 00:00:00 27.3 8 Sudeste 14 Sur 0 -- -- 26
2017-08-13 23:00:00 28.3 10 Sur 17 Sur 0 -- -- 26
2017-08-13 22:00:00 29.7 10 Sudoeste 19 Sur 0 -- -- 26
2017-08-13 21:00:00 32.3 11 Sur 17 Sur 0 -- -- 24
2017-08-13 20:00:00 34.5 6 Sudeste 16 Sudeste 0 -- -- 20
2017-08-13 19:00:00 35.4 7 Oeste 19 Sudeste 0 -- -- 20
2017-08-13 18:00:00 35.1 6 Sudeste 22 Sudeste 0 -- -- 20
2017-08-13 17:00:00 34.9 7 Nordeste 19 Este 0 -- -- 22
2017-08-13 16:00:00 34.2 11 Sudeste 30 Sudeste 0 -- -- 23
2017-08-13 15:00:00 33.6 9 Este 22 Este 0 -- -- 25
2017-08-13 14:00:00 32.4 11 Este 23 Este 0 -- -- 26
2017-08-13 13:00:00 31.5 8 Sudeste 20 Sudeste 0 -- -- 26
2017-08-13 12:00:00 29.7 13 Sudeste 23 Sudeste 0 -- -- 28
2017-08-13 11:00:00 27.4 12 Sudeste 23 Sudeste 0 -- -- 30
2017-08-13 10:00:00 24.4 12 Sudeste 21 Sudeste 0 -- -- 38
2017-08-13 09:00:00 21.6 10 Sudeste 20 Sudeste 0 -- -- 48
2017-08-13 08:00:00 19.9 12 Sudeste 21 Sudeste 0 -- -- 51
2017-08-13 07:00:00 20.3 13 Sudeste 19 Sudeste 0 -- -- 48
2017-08-13 06:00:00 20.8 12 Sudeste 22 Sudeste 0 -- -- 47
2017-08-13 05:00:00 21.7 14 Sudeste 22 Sudeste 0 -- -- 44
2017-08-13 04:00:00 22.2 9 Sudeste 19 Sudeste 0 -- -- 40
2017-08-13 03:00:00 23.1 12 Sudeste 18 Sudeste 0 -- -- 37
2017-08-13 02:00:00 24.3 8 Sudeste 13 Sudeste 0 -- -- 34
2017-08-13 01:00:00 26.1 7 Sudeste 14 Sur 0 -- -- 30
2017-08-13 00:00:00 27 8 Sur 11 Sur 0 -- -- 28
2017-08-12 23:00:00 27.4 0 Calma 16 Sur 0 -- -- 28
2017-08-12 22:00:00 29.4 9 Sur 19 Sur 0 -- -- 26
2017-08-12 21:00:00 33.4 0 Calma 12 Norte 0 -- -- 18
2017-08-12 20:00:00 34.2 4 Sudeste 21 Noroeste 0 -- -- 18
2017-08-12 19:00:00 34.7 6 Oeste 21 Noroeste 0 -- -- 18
2017-08-12 18:00:00 34.9 5 Sudoeste 18 Sur 0 -- -- 18
2017-08-12 17:00:00 34.3 6 Noroeste 23 Oeste 0 -- -- 20
2017-08-12 16:00:00 33.7 7 Oeste 18 Este 0 -- -- 21
2017-08-12 15:00:00 32.5 10 Sur 21 Sudeste 0 -- -- 23
2017-08-12 14:00:00 31.4 10 Este 20 Este 0 -- -- 26
2017-08-12 13:00:00 30 10 Sudeste 21 Nordeste 0 -- -- 31
2017-08-12 12:00:00 28.3 9 Sudeste 18 Sudeste 0 -- -- 33
2017-08-12 11:00:00 26 10 Sudeste 20 Sudeste 0 -- -- 37
2017-08-12 10:00:00 23.2 12 Sudeste 20 Sudeste 0 -- -- 49
2017-08-12 09:00:00 21.6 9 Sudeste 14 Sudeste 0 -- -- 56
2017-08-12 08:00:00 19.5 9 Sudeste 15 Sudeste 0 -- -- 55
2017-08-12 07:00:00 19.5 8 Sudeste 14 Sudeste 0 -- -- 47
2017-08-12 06:00:00 20.5 8 Sudeste 14 Sudeste 0 -- -- 47
2017-08-12 05:00:00 20.7 8 Sudeste 13 Sudeste 0 -- -- 32
2017-08-12 04:00:00 20 2 Oeste 5 Oeste 0 -- -- 26
2017-08-12 03:00:00 20.3 0 Calma 5 Oeste 0 -- -- 26
2017-08-12 02:00:00 21.7 3 Oeste 12 Noroeste 0 -- -- 24
2017-08-12 01:00:00 23.3 6 Noroeste 11 Norte 0 -- -- 22
2017-08-12 00:00:00 23.9 6 Norte 12 Norte 0 -- -- 19
2017-08-11 23:00:00 24.2 4 Norte 15 Norte 0 -- -- 18
2017-08-11 22:00:00 26.4 9 Norte 19 Norte 0 -- -- 18
2017-08-11 21:00:00 30.3 11 Norte 24 Nordeste 0 -- -- 16
2017-08-11 20:00:00 32.2 14 Nordeste 29 Norte 0 -- -- 14
2017-08-11 19:00:00 33 7 Nordeste 19 Nordeste 0 -- -- 13
2017-08-11 18:00:00 33.3 9 Nordeste 21 Norte 0 -- -- 12
2017-08-11 17:00:00 33.1 6 Noroeste 24 Nordeste 0 -- -- 13
2017-08-11 16:00:00 32.6 12 Norte 23 Norte 0 -- -- 14
2017-08-11 15:00:00 31.5 13 Norte 26 Norte 0 -- -- 17
2017-08-11 14:00:00 31 8 Nordeste 21 Nordeste 0 -- -- 19
2017-08-11 13:00:00 29.3 8 Este 18 Este 0 -- -- 27
2017-08-11 12:00:00 27.9 10 Sudeste 24 Este 0 -- -- 30
2017-08-11 11:00:00 25.7 15 Este 27 Este 0 -- -- 31
2017-08-11 10:00:00 23 10 Este 15 Este 0 -- -- 48
2017-08-11 09:00:00 19.9 5 Este 9 Este 0 -- -- 52
2017-08-11 08:00:00 16.6 2 Nordeste 8 Este 0 -- -- 52
2017-08-11 07:00:00 18.9 5 Sudeste 10 Sudeste 0 -- -- 60
2017-08-11 06:00:00 19.1 5 Sudeste 8 Sudeste 0 -- -- 40
2017-08-11 05:00:00 19.3 4 Este 9 Este 0 -- -- 23
2017-08-11 04:00:00 20.8 6 Este 15 Nordeste 0 -- -- 21
2017-08-11 03:00:00 20.7 6 Este 15 Nordeste 0 -- -- 20
2017-08-11 02:00:00 21 6 Este 11 Norte 0 -- -- 19
2017-08-11 01:00:00 21 6 Norte 12 Norte 0 -- -- 19
2017-08-11 00:00:00 22.1 7 Norte 14 Norte 0 -- -- 19
2017-08-10 23:00:00 23.1 8 Norte 17 Norte 0 -- -- 19
2017-08-10 22:00:00 24.9 6 Norte 13 Nordeste 0 -- -- 19
2017-08-10 21:00:00 28.5 12 Norte 20 Nordeste 0 -- -- 17
2017-08-10 20:00:00 29.9 10 Nordeste 24 Nordeste 0 -- -- 17
2017-08-10 19:00:00 30.2 10 Nordeste 26 Nordeste 0 -- -- 17
2017-08-10 18:00:00 30.3 11 Nordeste 32 Nordeste 0 -- -- 19
2017-08-10 17:00:00 30.1 11 Nordeste 46 Norte 0 -- -- 20
2017-08-10 16:00:00 29.3 13 Nordeste 26 Norte 0 -- -- 21
2017-08-10 15:00:00 28.4 14 Este 28 Este 0 -- -- 23
2017-08-10 14:00:00 27.4 14 Nordeste 28 Nordeste 0 -- -- 25
2017-08-10 13:00:00 26.3 15 Nordeste 30 Nordeste 0 -- -- 27
2017-08-10 12:00:00 24.1 19 Nordeste 32 Nordeste 0 -- -- 30
2017-08-10 11:00:00 22.4 16 Nordeste 34 Nordeste 0 -- -- 34
2017-08-10 10:00:00 20.9 18 Este 38 Este 0 -- -- 37
2017-08-10 09:00:00 19.3 13 Nordeste 23 Nordeste 0 -- -- 39
2017-08-10 08:00:00 17.7 9 Nordeste 20 Este 0 -- -- 39
2017-08-10 07:00:00 17.5 8 Nordeste 18 Nordeste 0 -- -- 39
2017-08-10 06:00:00 18 9 Nordeste 25 Este 0 -- -- 41
2017-08-10 05:00:00 18.9 14 Nordeste 26 Este 0 -- -- 40
2017-08-10 04:00:00 17.2 6 Noroeste 13 Noroeste 0 -- -- 35
2017-08-10 03:00:00 17 8 Noroeste 14 Noroeste 0 -- -- 34
2017-08-10 02:00:00 17.6 8 Noroeste 13 Noroeste 0 -- -- 33
2017-08-10 01:00:00 18.8 6 Noroeste 14 Noroeste 0 -- -- 32
2017-08-10 00:00:00 20.3 7 Noroeste 16 Noroeste 0 -- -- 30
2017-08-09 23:00:00 21.5 5 Noroeste 12 Oeste 0 -- -- 25
2017-08-09 22:00:00 23.6 6 Noroeste 18 Noroeste 0 -- -- 23
2017-08-09 21:00:00 26.8 14 Noroeste 33 Noroeste 0 -- -- 21
2017-08-09 20:00:00 28.2 19 Noroeste 34 Noroeste 0 -- -- 21
2017-08-09 19:00:00 28.6 21 Noroeste 36 Noroeste 0 -- -- 21
2017-08-09 18:00:00 29.3 21 Noroeste 38 Noroeste 0 -- -- 20
2017-08-09 17:00:00 29.6 16 Noroeste 32 Oeste 0 -- -- 19
2017-08-09 16:00:00 29.7 17 Oeste 30 Noroeste 0 -- -- 18
2017-08-09 15:00:00 28.6 13 Noroeste 28 Oeste -- -- -- 22
2017-08-09 14:00:00 28 14 Oeste 26 Oeste 0 -- -- 23
2017-08-09 13:00:00 26.4 12 Oeste 22 Oeste 0 -- -- 27
2017-08-09 12:00:00 24 13 Oeste 21 Oeste 0 -- -- 35
2017-08-09 11:00:00 20.7 14 Noroeste 24 Noroeste 0 -- -- 44
2017-08-09 10:00:00 17.7 19 Noroeste 27 Noroeste 0 -- -- 54
2017-08-09 09:00:00 15.9 18 Noroeste 25 Noroeste 0 -- -- 60
2017-08-09 08:00:00 13.7 8 Oeste 17 Oeste 0 -- -- 66
2017-08-09 07:00:00 13.9 10 Oeste 19 Noroeste 0 -- -- 66
2017-08-09 06:00:00 15.1 14 Oeste 20 Oeste 0 -- -- 62
2017-08-09 05:00:00 16 14 Noroeste 24 Noroeste 0 -- -- 59
2017-08-09 04:00:00 16.7 17 Noroeste 27 Noroeste 0 -- -- 57
2017-08-09 03:00:00 17.8 21 Noroeste 28 Noroeste 0 -- -- 52
2017-08-09 02:00:00 18.2 15 Noroeste 23 Noroeste 0 -- -- 47
2017-08-09 01:00:00 19.9 14 Noroeste 22 Noroeste 0 -- -- 33
2017-08-09 00:00:00 20.6 8 Noroeste 14 Oeste 0 -- -- 22
2017-08-08 23:00:00 21.3 9 Oeste 15 Oeste 0 -- -- 20
2017-08-08 22:00:00 23.7 10 Oeste 21 Noroeste 0 -- -- 17
2017-08-08 21:00:00 27.5 15 Noroeste 24 Noroeste 0 -- -- 15
2017-08-08 20:00:00 29.5 18 Noroeste 29 Noroeste 0 -- -- 13
2017-08-08 19:00:00 30 17 Noroeste 38 Noroeste 0 -- -- 13
2017-08-08 18:00:00 29.8 20 Noroeste 37 Noroeste 0 -- -- 14
2017-08-08 17:00:00 29.6 20 Noroeste 37 Noroeste 0 -- -- 16
2017-08-08 16:00:00 29.7 19 Noroeste 34 Noroeste 0 -- -- 16
2017-08-08 15:00:00 28.8 15 Noroeste 32 Oeste 0 -- -- 20
2017-08-08 14:00:00 27.4 17 Noroeste 31 Noroeste 0 -- -- 27
2017-08-08 13:00:00 25.5 13 Noroeste 30 Noroeste 0 -- -- 34
2017-08-08 12:00:00 23.1 12 Noroeste 27 Noroeste 0 -- -- 43
2017-08-08 11:00:00 20.9 13 Noroeste 24 Noroeste 0 -- -- 51
2017-08-08 10:00:00 18.3 15 Noroeste 27 Noroeste 0 -- -- 60
2017-08-08 09:00:00 15.4 22 Noroeste 33 Noroeste 0 -- -- 70
2017-08-08 08:00:00 14 17 Noroeste 24 Noroeste 0 -- -- 75
2017-08-08 07:00:00 14.6 14 Noroeste 29 Noroeste 0 -- -- 70
2017-08-08 06:00:00 15.4 20 Noroeste 30 Noroeste 0 -- -- 65
2017-08-08 05:00:00 16.3 15 Noroeste 30 Oeste 0 -- -- 60
2017-08-08 04:00:00 18 18 Noroeste 27 Noroeste 0 -- -- 51
2017-08-08 03:00:00 19.6 18 Noroeste 30 Noroeste 0 -- -- 41
2017-08-08 02:00:00 21.6 22 Noroeste 36 Noroeste 0 -- -- 30
2017-08-08 01:00:00 23.2 23 Noroeste 33 Noroeste 0 -- -- 34
2017-08-08 00:00:00 24.5 18 Noroeste 31 Noroeste 0 -- -- 28
2017-08-07 23:00:00 26.2 15 Noroeste 27 Noroeste 0 -- -- 23
2017-08-07 22:00:00 29.4 18 Oeste 35 Oeste 0 -- -- 14
2017-08-07 21:00:00 32.3 21 Oeste 44 Oeste 0 -- -- 12
2017-08-07 20:00:00 34.8 30 Noroeste 46 Noroeste 0 -- -- 10
2017-08-07 19:00:00 36.6 29 Oeste 45 Oeste 0 -- -- 10
2017-08-07 18:00:00 37.7 26 Oeste 42 Oeste 0 -- -- 9
2017-08-07 17:00:00 38.5 19 Oeste 43 Oeste 0 -- -- 8
2017-08-07 16:00:00 37.9 18 Sudoeste 37 Oeste 0 -- -- 9
2017-08-07 15:00:00 36.7 7 Oeste 26 Oeste 0 -- -- 9
2017-08-07 14:00:00 35.4 10 Oeste 24 Oeste 0 -- -- 9
2017-08-07 13:00:00 33.9 10 Sudoeste 18 Noroeste 0 -- -- 9
2017-08-07 12:00:00 31.8 7 Oeste 17 Noroeste 0 -- -- 11
2017-08-07 11:00:00 29.9 9 Noroeste 15 Oeste 0 -- -- 11
2017-08-07 10:00:00 27 9 Oeste 15 Oeste 0 -- -- 28
2017-08-07 09:00:00 25.1 5 Sudeste 11 Sudoeste 0 -- -- 33
2017-08-07 08:00:00 21.3 6 Sudoeste 11 Sudoeste 0 -- -- 36
2017-08-07 07:00:00 21.7 5 Sudoeste 12 Sudeste 0 -- -- 39
2017-08-07 06:00:00 21 6 Noroeste 9 Noroeste 0 -- -- 37
2017-08-07 05:00:00 23 2 Noroeste 10 Oeste 0 -- -- 32
2017-08-07 04:00:00 24 6 Oeste 12 Oeste 0 -- -- 26
2017-08-07 03:00:00 26.7 9 Sudoeste 22 Oeste 0 -- -- 21
2017-08-07 02:00:00 25.1 5 Oeste 14 Oeste 0 -- -- 21
2017-08-07 01:00:00 26.7 10 Sudoeste 14 Sudoeste 0 -- -- 19
2017-08-07 00:00:00 27.7 10 Oeste 15 Oeste 0 -- -- 17
2017-08-06 23:00:00 28.8 8 Oeste 12 Oeste 0 -- -- 18
2017-08-06 22:00:00 30 7 Noroeste 18 Noroeste 0 -- -- 16
2017-08-06 21:00:00 34.4 12 Oeste 32 Noroeste 0 -- -- 11
2017-08-06 20:00:00 36.7 20 Oeste 31 Oeste 0 -- -- 10
2017-08-06 19:00:00 37.9 19 Oeste 36 Oeste 0 -- -- 8
2017-08-06 18:00:00 38.4 23 Oeste 40 Sudoeste 0 -- -- 8
2017-08-06 17:00:00 38.6 20 Oeste 33 Oeste 0 -- -- 10
2017-08-06 16:00:00 38.4 21 Oeste 32 Oeste 0 -- -- 10
2017-08-06 15:00:00 36.7 13 Oeste 31 Sudoeste 0 -- -- 13
2017-08-06 14:00:00 35.7 14 Oeste 23 Oeste 0 -- -- 16
2017-08-06 13:00:00 33.9 9 Oeste 18 Oeste 0 -- -- 19
2017-08-06 12:00:00 31.3 5 Sudeste 15 Sudeste 0 -- -- 23
2017-08-06 11:00:00 28.4 5 Sur 9 Sur 0 -- -- 29
2017-08-06 10:00:00 24.9 4 Sudoeste 7 Noroeste 0 -- -- 37
2017-08-06 09:00:00 21.6 2 Sudeste 6 Noroeste 0 -- -- 47
2017-08-06 08:00:00 18.1 3 Noroeste 7 Noroeste 0 -- -- 53
2017-08-06 07:00:00 18.2 6 Oeste 10 Noroeste 0 -- -- 53
2017-08-06 06:00:00 18.7 5 Oeste 11 Oeste 0 -- -- 52
2017-08-06 05:00:00 19.2 8 Oeste 10 Oeste 0 -- -- 53
2017-08-06 04:00:00 19.5 6 Noroeste 13 Noroeste 0 -- -- 47
2017-08-06 03:00:00 20.6 12 Noroeste 19 Oeste 0 -- -- 44
2017-08-06 02:00:00 23.3 15 Noroeste 23 Noroeste 0 -- -- 38
2017-08-06 01:00:00 24.6 12 Noroeste 19 Noroeste 0 -- -- 31
2017-08-06 00:00:00 27.1 12 Noroeste 30 Noroeste -- -- -- 27
2017-08-05 23:00:00 29.5 18 Noroeste 29 Noroeste 0 -- -- 24
2017-08-05 22:00:00 31.5 14 Noroeste 31 Noroeste 0 -- -- 26
2017-08-05 21:00:00 34.6 22 Noroeste 35 Noroeste 0 -- -- 23
2017-08-05 20:00:00 36.7 22 Noroeste 38 Noroeste 0 -- -- 19
2017-08-05 19:00:00 37.6 24 Noroeste 44 Noroeste 0 -- -- 19
2017-08-05 18:00:00 38.3 20 Noroeste 38 Noroeste 0 -- -- 19
2017-08-05 17:00:00 38.8 13 Noroeste 32 Noroeste 0 -- -- 19
2017-08-05 16:00:00 38.8 18 Oeste 37 Noroeste 0 -- -- 19
2017-08-05 15:00:00 37.7 18 Oeste 32 Oeste 0 -- -- 21
2017-08-05 14:00:00 36.7 13 Noroeste 25 Oeste 0 -- -- 23
2017-08-05 13:00:00 35 6 Oeste 20 Oeste 0 -- -- 26
2017-08-05 12:00:00 32.9 8 Oeste 14 Oeste 0 -- -- 30
2017-08-05 11:00:00 30.3 9 Noroeste 17 Noroeste 0 -- -- 35
2017-08-05 10:00:00 27.5 10 Oeste 20 Noroeste 0 -- -- 42
2017-08-05 09:00:00 24.7 13 Noroeste 21 Noroeste 0 -- -- 48
2017-08-05 08:00:00 22.5 10 Noroeste 17 Noroeste 0 -- -- 53
2017-08-05 07:00:00 22.8 11 Noroeste 18 Noroeste 0 -- -- 51
2017-08-05 06:00:00 23.5 10 Oeste 18 Noroeste 0 -- -- 49
2017-08-05 05:00:00 24.4 10 Oeste 17 Noroeste 0 -- -- 46
2017-08-05 04:00:00 25.2 11 Noroeste 19 Noroeste 0 -- -- 45
2017-08-05 03:00:00 26.4 15 Noroeste 25 Noroeste 0 -- -- 43
2017-08-05 02:00:00 27.4 14 Noroeste 25 Noroeste 0 -- -- 40
2017-08-05 01:00:00 28.7 17 Noroeste 27 Noroeste 0 -- -- 38
2017-08-05 00:00:00 29.1 12 Noroeste 17 Noroeste 0 -- -- 29
2017-08-04 23:00:00 30.7 6 Noroeste 11 Noroeste 0 -- -- 26
2017-08-04 22:00:00 33.2 9 Noroeste 16 Noroeste 0 -- -- 24
2017-08-04 21:00:00 36.8 11 Noroeste 22 Noroeste 0 -- -- 20
2017-08-04 20:00:00 38.2 13 Noroeste 27 Noroeste 0 -- -- 20
2017-08-04 19:00:00 38.8 12 Noroeste 30 Noroeste 0 -- -- 20
2017-08-04 18:00:00 39 9 Norte 26 Norte 0 -- -- 20
2017-08-04 17:00:00 39.1 10 Sudoeste 23 Noroeste 0 -- -- 19
2017-08-04 16:00:00 38.3 11 Oeste 22 Noroeste 0 -- -- 19
2017-08-04 15:00:00 37.2 11 Noroeste 21 Noroeste 0 -- -- 21
2017-08-04 14:00:00 36.1 7 Noroeste 18 Noroeste 0 -- -- 24
2017-08-04 13:00:00 34.6 8 Oeste 19 Noroeste 0 -- -- 28
2017-08-04 12:00:00 32.9 6 Norte 15 Noroeste 0 -- -- 32
2017-08-04 11:00:00 30.8 5 Norte 12 Oeste 0 -- -- 37
2017-08-04 10:00:00 27.2 8 Noroeste 12 Noroeste 0 -- -- 46
2017-08-04 09:00:00 24 12 Noroeste 16 Noroeste 0 -- -- 53
2017-08-04 08:00:00 21.7 6 Oeste 13 Noroeste 0 -- -- 59
2017-08-04 07:00:00 21.7 9 Noroeste 16 Noroeste 0 -- -- 59
2017-08-04 06:00:00 22.2 11 Noroeste 18 Noroeste 0 -- -- 57
2017-08-04 05:00:00 22.9 13 Noroeste 18 Noroeste 0 -- -- 55
2017-08-04 04:00:00 23.9 13 Noroeste 22 Noroeste 0 -- -- 50
2017-08-04 03:00:00 24.5 12 Noroeste 19 Noroeste 0 -- -- 47
2017-08-04 02:00:00 25.2 11 Oeste 15 Oeste 0 -- -- 40
2017-08-04 01:00:00 25.7 8 Oeste 19 Oeste 0 -- -- 24
2017-08-04 00:00:00 26.4 5 Oeste 10 Noroeste 0 -- -- 21
2017-08-03 23:00:00 27 6 Noroeste 11 Noroeste 0 -- -- 18
2017-08-03 22:00:00 29.6 9 Noroeste 22 Noroeste 0 -- -- 16
2017-08-03 21:00:00 33.7 15 Noroeste 26 Noroeste 0 -- -- 14
2017-08-03 20:00:00 35.7 14 Noroeste 26 Noroeste 0 -- -- 14
2017-08-03 19:00:00 36.6 12 Noroeste 27 Noroeste 0 -- -- 12
2017-08-03 18:00:00 36.5 9 Noroeste 27 Oeste 0 -- -- 12
2017-08-03 17:00:00 36.2 15 Norte 30 Noroeste 0 -- -- 14
2017-08-03 16:00:00 36.1 12 Noroeste 34 Oeste 0 -- -- 13
2017-08-03 15:00:00 35.6 11 Noroeste 25 Noroeste 0 -- -- 15
2017-08-03 14:00:00 35 9 Noroeste 23 Noroeste 0 -- -- 16
2017-08-03 13:00:00 33.6 10 Norte 21 Noroeste 0 -- -- 19
2017-08-03 12:00:00 32.4 5 Nordeste 12 Nordeste 0 -- -- 19
2017-08-03 11:00:00 29 5 Nordeste 12 Noroeste 0 -- -- 26
2017-08-03 10:00:00 25.1 7 Noroeste 12 Noroeste 0 -- -- 32
2017-08-03 09:00:00 21 9 Noroeste 13 Noroeste 0 -- -- 39
2017-08-03 08:00:00 17.8 7 Oeste 10 Oeste 0 -- -- 44
2017-08-03 07:00:00 18.2 6 Oeste 15 Oeste 0 -- -- 43
2017-08-03 06:00:00 18.7 10 Noroeste 16 Noroeste 0 -- -- 41
2017-08-03 05:00:00 19.4 10 Noroeste 21 Noroeste 0 -- -- 40
2017-08-03 04:00:00 20.1 14 Noroeste 20 Noroeste 0 -- -- 40
2017-08-03 03:00:00 21 13 Noroeste 22 Noroeste 0 -- -- 36
2017-08-03 02:00:00 22.2 14 Noroeste 23 Noroeste 0 -- -- 30
2017-08-03 01:00:00 23.6 8 Oeste 15 Noroeste 0 -- -- 29
2017-08-03 00:00:00 24.6 10 Noroeste 16 Noroeste 0 -- -- 28
2017-08-02 23:00:00 26.4 8 Norte 17 Norte 0 -- -- 24
2017-08-02 22:00:00 29.1 8 Norte 17 Noroeste 0 -- -- 22
2017-08-02 21:00:00 32.4 10 Noroeste 20 Noroeste 0 -- -- 19
2017-08-02 20:00:00 33.7 8 Norte 22 Noroeste 0 -- -- 18
2017-08-02 19:00:00 34.4 11 Oeste 24 Oeste 0 -- -- 17
2017-08-02 18:00:00 34.4 11 Norte 33 Noroeste 0 -- -- 17
2017-08-02 17:00:00 33.8 6 Oeste 28 Norte 0 -- -- 18
2017-08-02 16:00:00 33.5 12 Oeste 24 Noroeste 0 -- -- 19
2017-08-02 15:00:00 32.7 8 Sudoeste 21 Nordeste 0 -- -- 21
2017-08-02 14:00:00 31.5 9 Norte 23 Noroeste 0 -- -- 22
2017-08-02 13:00:00 30.6 5 Nordeste 15 Norte 0 -- -- 24
2017-08-02 12:00:00 28.4 4 Noroeste 12 Noroeste 0 -- -- 26
2017-08-02 11:00:00 25.4 5 Norte 18 Noroeste 0 -- -- 33
2017-08-02 10:00:00 21.6 11 Noroeste 18 Noroeste 0 -- -- 39
2017-08-02 09:00:00 18.2 8 Noroeste 12 Noroeste 0 -- -- 49
2017-08-02 08:00:00 15.4 7 Oeste 13 Oeste 0 -- -- 54
2017-08-02 07:00:00 14.8 9 Noroeste 15 Noroeste 0 -- -- 55
2017-08-02 06:00:00 15.6 10 Noroeste 15 Oeste 0 -- -- 52
2017-08-02 05:00:00 16.7 9 Oeste 19 Noroeste 0 -- -- 49
2017-08-02 04:00:00 17.7 12 Noroeste 21 Noroeste 0 -- -- 47
2017-08-02 03:00:00 18.5 14 Noroeste 23 Noroeste 0 -- -- 43
2017-08-02 02:00:00 19.6 15 Noroeste 22 Noroeste 0 -- -- 38
2017-08-02 01:00:00 21.5 14 Noroeste 26 Noroeste 0 -- -- 33
2017-08-02 00:00:00 22.2 16 Noroeste 26 Noroeste 0 -- -- 30
2017-08-01 23:00:00 23.4 9 Noroeste 17 Noroeste 0 -- -- 29
2017-08-01 22:00:00 26 12 Noroeste 22 Noroeste 0 -- -- 26
2017-08-01 21:00:00 29 13 Noroeste 22 Noroeste 0 -- -- 26
2017-08-01 20:00:00 30.5 9 Noroeste 24 Noroeste 0 -- -- 25
2017-08-01 19:00:00 30.8 12 Noroeste 22 Oeste 0 -- -- 24
2017-08-01 18:00:00 30.9 9 Noroeste 28 Noroeste 0 -- -- 23
2017-08-01 17:00:00 31 14 Noroeste 27 Noroeste 0 -- -- 20
2017-08-01 16:00:00 29.8 6 Sudoeste 19 Oeste 0 -- -- 22
2017-08-01 15:00:00 28.4 10 Oeste 20 Noroeste 0 -- -- 27
2017-08-01 14:00:00 26.3 8 Oeste 15 Noroeste 0 -- -- 33
2017-08-01 13:00:00 23.3 4 Noroeste 12 Oeste 0 -- -- 40
2017-08-01 12:00:00 20.6 6 Noroeste 23 Noroeste 0 -- -- 49
2017-08-01 11:00:00 18.5 8 Norte 19 Noroeste 0 -- -- 58
2017-08-01 10:00:00 18.6 9 Oeste 17 Noroeste 0 -- -- 53
2017-08-01 09:00:00 17.9 10 Noroeste 15 Noroeste 0 -- -- 56
2017-08-01 08:00:00 17.5 9 Oeste 17 Oeste 0 -- -- 59
2017-08-01 07:00:00 17.4 9 Noroeste 14 Noroeste 0 -- -- 62
2017-08-01 06:00:00 17.9 6 Oeste 13 Oeste 0 -- -- 58
2017-08-01 05:00:00 18.5 9 Noroeste 15 Noroeste 0 -- -- 56
2017-08-01 04:00:00 18.8 11 Noroeste 22 Oeste 0 -- -- 55
2017-08-01 03:00:00 19.2 13 Noroeste 22 Noroeste 0 -- -- 53
2017-08-01 02:00:00 19.7 14 Noroeste 27 Noroeste 0 -- -- 46
2017-08-01 01:00:00 20.2 17 Noroeste 33 Noroeste 0 -- -- 44
2017-08-01 00:00:00 21.5 23 Noroeste 35 Noroeste 0 -- -- 38
2017-07-31 23:00:00 22.9 19 Noroeste 33 Noroeste 0 -- -- 36
2017-07-31 22:00:00 24.5 23 Noroeste 37 Noroeste 0 -- -- 33
2017-07-31 21:00:00 28.1 16 Noroeste 36 Noroeste 0 -- -- 21
2017-07-31 20:00:00 31.6 21 Oeste 36 Oeste 0 -- -- 16
2017-07-31 19:00:00 32.2 24 Noroeste 40 Oeste 0 -- -- 15
2017-07-31 18:00:00 34.2 15 Sur 33 Sur 0 -- -- 18
2017-07-31 17:00:00 34.3 16 Sudoeste 33 Noroeste 0 -- -- 19
2017-07-31 16:00:00 33.1 14 Noroeste 31 Noroeste 0 -- -- 17
2017-07-31 15:00:00 32.6 15 Oeste 29 Oeste 0 -- -- 19
2017-07-31 14:00:00 31.5 16 Oeste 27 Oeste 0 -- -- 21
2017-07-31 13:00:00 29.5 14 Noroeste 27 Noroeste 0 -- -- 22
2017-07-31 12:00:00 28.4 12 Noroeste 20 Norte 0 -- -- 20
2017-07-31 11:00:00 26.6 4 Noroeste 11 Oeste 0 -- -- 24
2017-07-31 10:00:00 23.2 9 Noroeste 13 Oeste 0 -- -- 31
2017-07-31 09:00:00 20 2 Norte 5 Noroeste 0 -- -- 49
2017-07-31 08:00:00 16.4 0 Calma 9 Oeste 0 -- -- 60
2017-07-31 07:00:00 16.5 4 Oeste 6 Noroeste 0 -- -- 58
2017-07-31 06:00:00 17.1 3 Norte 17 Noroeste 0 -- -- 56
2017-07-31 05:00:00 18.5 14 Noroeste 19 Noroeste 0 -- -- 50
2017-07-31 04:00:00 19.5 9 Noroeste 26 Noroeste 0 -- -- 45
2017-07-31 03:00:00 21.1 17 Noroeste 27 Noroeste 0 -- -- 41
2017-07-31 02:00:00 22.7 18 Noroeste 31 Noroeste 0 -- -- 37
2017-07-31 01:00:00 23.9 17 Noroeste 23 Noroeste 0 -- -- 33
2017-07-31 00:00:00 25.8 16 Noroeste 23 Noroeste 0 -- -- 28
2017-07-30 23:00:00 27.3 13 Oeste 21 Oeste 0 -- -- 25
2017-07-30 22:00:00 29.4 9 Noroeste 26 Noroeste 0 -- -- 21
2017-07-30 21:00:00 32.9 18 Noroeste 30 Noroeste 0 -- -- 18
2017-07-30 20:00:00 35.5 16 Noroeste 31 Oeste 0 -- -- 17
2017-07-30 19:00:00 36.5 17 Noroeste 32 Noroeste 0 -- -- 17
2017-07-30 18:00:00 36.3 14 Noroeste 33 Oeste 0 -- -- 16
2017-07-30 17:00:00 37.2 16 Noroeste 30 Oeste 0 -- -- 16
2017-07-30 16:00:00 36.9 6 Oeste 30 Oeste 0 -- -- 16
2017-07-30 15:00:00 36.3 14 Oeste 27 Noroeste 0 -- -- 16
2017-07-30 14:00:00 35.1 11 Oeste 26 Oeste 0 -- -- 18
2017-07-30 13:00:00 33.6 7 Noroeste 15 Oeste 0 -- -- 19
2017-07-30 12:00:00 31.7 3 Sudoeste 16 Oeste 0 -- -- 21
2017-07-30 11:00:00 28.7 10 Noroeste 18 Noroeste 0 -- -- 27
2017-07-30 10:00:00 25.2 11 Noroeste 27 Noroeste 0 -- -- 35
2017-07-30 09:00:00 23.1 11 Noroeste 18 Noroeste 0 -- -- 39
2017-07-30 08:00:00 20.8 7 Oeste 13 Oeste 0 -- -- 42
2017-07-30 07:00:00 20.7 9 Oeste 14 Oeste 0 -- -- 44
2017-07-30 06:00:00 21.2 9 Oeste 13 Oeste 0 -- -- 47
2017-07-30 05:00:00 22.2 7 Oeste 17 Noroeste 0 -- -- 45
2017-07-30 04:00:00 22.8 13 Noroeste 26 Noroeste 0 -- -- 44
2017-07-30 03:00:00 24.1 18 Noroeste 25 Noroeste 0 -- -- 42
2017-07-30 02:00:00 25.7 16 Noroeste 26 Noroeste 0 -- -- 34
2017-07-30 01:00:00 26 13 Noroeste 17 Noroeste 0 -- -- 29
2017-07-30 00:00:00 27.2 7 Oeste 12 Oeste 0 -- -- 29
2017-07-29 23:00:00 28.5 6 Noroeste 14 Noroeste 0 -- -- 29
2017-07-29 22:00:00 31.2 8 Noroeste 24 Noroeste 0 -- -- 25
2017-07-29 21:00:00 34.4 18 Noroeste 27 Noroeste 0 -- -- 23
2017-07-29 20:00:00 36 15 Noroeste 30 Noroeste 0 -- -- 20
2017-07-29 19:00:00 37.1 13 Noroeste 29 Noroeste 0 -- -- 18
2017-07-29 18:00:00 37.2 14 Noroeste 32 Noroeste 0 -- -- 15
2017-07-29 17:00:00 36.6 12 Noroeste 27 Noroeste 0 -- -- 20
2017-07-29 16:00:00 36.4 13 Noroeste 32 Noroeste 0 -- -- 19
2017-07-29 15:00:00 36.2 12 Oeste 31 Noroeste 0 -- -- 18
2017-07-29 14:00:00 35 13 Oeste 26 Oeste 0 -- -- 19
2017-07-29 13:00:00 33.3 10 Oeste 19 Oeste 0 -- -- 23
2017-07-29 12:00:00 31.3 8 Oeste 16 Noroeste 0 -- -- 29
2017-07-29 11:00:00 28.8 7 Noroeste 11 Noroeste 0 -- -- 36
2017-07-29 10:00:00 25.3 6 Noroeste 15 Noroeste 0 -- -- 45
2017-07-29 09:00:00 21.9 8 Noroeste 12 Oeste 0 -- -- 54
2017-07-29 08:00:00 19 7 Oeste 9 Oeste 0 -- -- 61
2017-07-29 07:00:00 19.1 8 Oeste 9 Oeste 0 -- -- 60
2017-07-29 06:00:00 20.2 3 Oeste 15 Noroeste 0 -- -- 57
2017-07-29 05:00:00 21.1 8 Oeste 20 Noroeste 0 -- -- 53
2017-07-29 04:00:00 21.4 10 Oeste 17 Noroeste 0 -- -- 50
2017-07-29 03:00:00 22.1 9 Noroeste 21 Noroeste 0 -- -- 45
2017-07-29 02:00:00 23.1 11 Noroeste 18 Noroeste 0 -- -- 37
2017-07-29 01:00:00 24.1 12 Noroeste 24 Noroeste 0 -- -- 30
2017-07-29 00:00:00 25.5 11 Noroeste 16 Oeste 0 -- -- 22
2017-07-28 23:00:00 27.5 6 Noroeste 10 Noroeste 0 -- -- 18
2017-07-28 22:00:00 30.3 7 Noroeste 23 Noroeste 0 -- -- 16
2017-07-28 21:00:00 34.1 15 Noroeste 27 Noroeste 0 -- -- 13
2017-07-28 20:00:00 36.2 18 Noroeste 29 Noroeste 0 -- -- 15
2017-07-28 19:00:00 36.7 18 Noroeste 29 Noroeste 0 -- -- 15
2017-07-28 18:00:00 37.7 14 Noroeste 25 Oeste 0 -- -- 14
2017-07-28 17:00:00 37.9 9 Sudoeste 29 Noroeste 0 -- -- 13
2017-07-28 16:00:00 37.2 14 Noroeste 26 Noroeste 0 -- -- 14
2017-07-28 15:00:00 36.5 9 Oeste 23 Oeste 0 -- -- 14
2017-07-28 14:00:00 35.4 11 Noroeste 26 Oeste 0 -- -- 16
2017-07-28 13:00:00 33.6 7 Sudoeste 15 Sudoeste 0 -- -- 21
2017-07-28 12:00:00 30.7 6 Oeste 11 Norte 0 -- -- 31
2017-07-28 11:00:00 27.6 5 Noroeste 13 Noroeste 0 -- -- 39
2017-07-28 10:00:00 23.6 8 Noroeste 14 Noroeste 0 -- -- 49
2017-07-28 09:00:00 20.7 5 Noroeste 12 Noroeste 0 -- -- 54
2017-07-28 08:00:00 18.3 9 Noroeste 14 Oeste 0 -- -- 61
2017-07-28 07:00:00 18.8 10 Oeste 14 Oeste 0 -- -- 56
2017-07-28 06:00:00 19.9 9 Noroeste 17 Noroeste 0 -- -- 52
2017-07-28 05:00:00 20.8 10 Noroeste 16 Noroeste 0 -- -- 48
2017-07-28 04:00:00 22 10 Oeste 15 Oeste 0 -- -- 43
2017-07-28 03:00:00 21.7 9 Oeste 17 Oeste 0 -- -- 38
2017-07-28 02:00:00 23.5 8 Noroeste 14 Noroeste 0 -- -- 30
2017-07-28 01:00:00 25.6 11 Oeste 21 Noroeste 0 -- -- 26
2017-07-28 00:00:00 26.7 3 Oeste 10 Oeste 0 -- -- 27
2017-07-27 23:00:00 29.3 7 Noroeste 16 Noroeste 0 -- -- 24
2017-07-27 22:00:00 30.8 13 Noroeste 24 Noroeste 0 -- -- 21
2017-07-27 21:00:00 33.8 14 Noroeste 26 Noroeste 0 -- -- 20
2017-07-27 20:00:00 35.6 15 Noroeste 32 Noroeste 0 -- -- 20
2017-07-27 19:00:00 37.4 17 Noroeste 29 Sudoeste 0 -- -- 19
2017-07-27 18:00:00 37.7 7 Sudoeste 32 Oeste 0 -- -- 19
2017-07-27 17:00:00 37.9 12 Oeste 32 Oeste 0 -- -- 17
2017-07-27 16:00:00 37 6 Sur 27 Sudoeste 0 -- -- 17
2017-07-27 15:00:00 36.6 12 Sudoeste 24 Sudoeste 0 -- -- 19
2017-07-27 14:00:00 35.6 8 Este 17 Oeste 0 -- -- 21
2017-07-27 13:00:00 34.6 10 Sur 15 Sudeste 0 -- -- 23
2017-07-27 12:00:00 32.3 6 Sudoeste 13 Oeste 0 -- -- 27
2017-07-27 11:00:00 29.6 6 Sudoeste 13 Sudoeste 0 -- -- 31
2017-07-27 10:00:00 26.8 4 Sudoeste 7 Sudoeste 0 -- -- 36
2017-07-27 09:00:00 24.3 4 Sur 9 Sur 0 -- -- 42
2017-07-27 08:00:00 21.6 5 Sur 9 Sudoeste 0 -- -- 46
2017-07-27 07:00:00 22.2 6 Sudoeste 9 Sudoeste 0 -- -- 43
2017-07-27 06:00:00 22 8 Sudoeste 15 Oeste 0 -- -- 44
2017-07-27 05:00:00 22.6 10 Oeste 15 Oeste 0 -- -- 43
2017-07-27 04:00:00 23 8 Oeste 15 Oeste 0 -- -- 42
2017-07-27 03:00:00 23.3 11 Oeste 16 Oeste 0 -- -- 40
2017-07-27 02:00:00 23.2 9 Oeste 13 Oeste 0 -- -- 46
2017-07-27 01:00:00 25.9 2 Sudeste 11 Sur 0 -- -- 41
2017-07-27 00:00:00 27.1 9 Sur 15 Sur 0 -- -- 40
2017-07-26 23:00:00 28 9 Sur 15 Sudoeste 0 -- -- 40
2017-07-26 22:00:00 29.8 10 Sur 23 Sudoeste 0 -- -- 37
2017-07-26 21:00:00 32.9 13 Sudoeste 18 Sudoeste 0 -- -- 31
2017-07-26 20:00:00 34.9 10 Noroeste 19 Noroeste 0 -- -- 17
2017-07-26 19:00:00 35.4 11 Noroeste 21 Noroeste 0 -- -- 17
2017-07-26 18:00:00 35.2 13 Oeste 23 Oeste 0 -- -- 18
2017-07-26 17:00:00 34.6 14 Oeste 24 Oeste 0 -- -- 19
2017-07-26 16:00:00 33.5 5 Noroeste 14 Noroeste 0 -- -- 20
2017-07-26 15:00:00 32.8 5 Sudeste 12 Sur 0 -- -- 20
2017-07-26 14:00:00 31.2 3 Sudeste 15 Sudeste 0 -- -- 23
2017-07-26 13:00:00 29.1 8 Sudeste 13 Este 0 -- -- 25
2017-07-26 12:00:00 27.2 7 Este 11 Este 0 -- -- 26
2017-07-26 11:00:00 25.7 4 Sudeste 8 Sudeste 0 -- -- 27
2017-07-26 10:00:00 24.5 4 Este 6 Este 0 -- -- 29
2017-07-26 09:00:00 21.7 2 Nordeste 6 Nordeste 0 -- -- 34
2017-07-26 08:00:00 20 0 Calma 6 Nordeste 0 -- -- 35
2017-07-26 07:00:00 20.3 0 Calma 5 Noroeste 0 -- -- 35
2017-07-26 06:00:00 20.6 3 Noroeste 7 Norte 0 -- -- 34
2017-07-26 05:00:00 21.7 3 Oeste 9 Oeste 0 -- -- 32
2017-07-26 04:00:00 21.7 8 Oeste 10 Oeste 0 -- -- 32
2017-07-26 03:00:00 23.5 5 Noroeste 12 Norte 0 -- -- 30
2017-07-26 02:00:00 24.9 7 Norte 14 Norte 0 -- -- 27
2017-07-26 01:00:00 25.6 6 Noroeste 15 Norte 0 -- -- 26
2017-07-26 00:00:00 25.6 6 Noroeste 10 Noroeste 0 -- -- 26
2017-07-25 23:00:00 28.3 7 Norte 20 Norte 0 -- -- 25
2017-07-25 22:00:00 30 10 Norte 26 Norte 0 -- -- 25
2017-07-25 21:00:00 33 14 Norte 28 Noroeste 0 -- -- 22
2017-07-25 20:00:00 34.5 15 Noroeste 33 Norte 0 -- -- 19
2017-07-25 19:00:00 35.5 14 Noroeste 30 Noroeste 0 -- -- 19
2017-07-25 18:00:00 35.5 9 Norte 31 Noroeste 0 -- -- 19
2017-07-25 17:00:00 35.7 6 Nordeste 29 Nordeste 0 -- -- 19
2017-07-25 16:00:00 35.1 11 Noroeste 23 Noroeste 0 -- -- 17
2017-07-25 15:00:00 35.1 6 Nordeste 22 Nordeste 0 -- -- 20
2017-07-25 14:00:00 33.4 10 Este 19 Este 0 -- -- 22
2017-07-25 13:00:00 32.4 6 Noroeste 23 Nordeste 0 -- -- 24
2017-07-25 12:00:00 30.6 7 Nordeste 15 Nordeste 0 -- -- 27
2017-07-25 11:00:00 28.6 11 Nordeste 20 Nordeste 0 -- -- 30
2017-07-25 10:00:00 25.7 10 Nordeste 19 Nordeste 0 -- -- 39
2017-07-25 09:00:00 21.1 11 Noroeste 16 Noroeste 0 -- -- 56
2017-07-25 08:00:00 18.9 9 Noroeste 18 Oeste 0 -- -- 65
2017-07-25 07:00:00 18.7 10 Noroeste 18 Noroeste 0 -- -- 65
2017-07-25 06:00:00 19.4 10 Oeste 17 Noroeste 0 -- -- 63
2017-07-25 05:00:00 20 9 Oeste 17 Noroeste 0 -- -- 61
2017-07-25 04:00:00 20.6 10 Noroeste 17 Noroeste 0 -- -- 58
2017-07-25 03:00:00 21.6 12 Noroeste 21 Noroeste 0 -- -- 55
2017-07-25 02:00:00 23 13 Oeste 20 Noroeste 0 -- -- 49
2017-07-25 01:00:00 24.2 11 Noroeste 22 Noroeste 0 -- -- 41
2017-07-25 00:00:00 25.9 16 Noroeste 29 Oeste 0 -- -- 31
2017-07-24 23:00:00 26.2 5 Noroeste 13 Oeste 0 -- -- 28
2017-07-24 22:00:00 28.8 9 Oeste 22 Noroeste 0 -- -- 25
2017-07-24 21:00:00 32.6 14 Noroeste 27 Noroeste 0 -- -- 21
2017-07-24 20:00:00 33.6 15 Noroeste 30 Noroeste 0 -- -- 21
2017-07-24 19:00:00 34 16 Noroeste 30 Noroeste 0 -- -- 22
2017-07-24 18:00:00 33.9 17 Noroeste 34 Noroeste 0 -- -- 21
2017-07-24 17:00:00 34 18 Noroeste 38 Noroeste 0 -- -- 22
2017-07-24 16:00:00 33.2 19 Noroeste 32 Noroeste 0 -- -- 21
2017-07-24 15:00:00 32.7 16 Oeste 31 Noroeste 0 -- -- 22
2017-07-24 14:00:00 31 14 Noroeste 26 Noroeste 0 -- -- 27
2017-07-24 13:00:00 29.7 16 Noroeste 32 Noroeste 0 -- -- 30
2017-07-24 12:00:00 28.1 17 Noroeste 25 Noroeste 0 -- -- 33
2017-07-24 11:00:00 25.3 14 Noroeste 24 Noroeste 0 -- -- 46
2017-07-24 10:00:00 22.9 17 Noroeste 24 Noroeste 0 -- -- 54
2017-07-24 09:00:00 20.4 11 Noroeste 21 Noroeste 0 -- -- 62
2017-07-24 08:00:00 18.6 13 Noroeste 22 Noroeste 0 -- -- 66
2017-07-24 07:00:00 18.5 14 Noroeste 24 Noroeste 0 -- -- 65
2017-07-24 06:00:00 19.1 14 Noroeste 24 Noroeste 0 -- -- 60
2017-07-24 05:00:00 20 17 Noroeste 25 Noroeste 0 -- -- 55
2017-07-24 04:00:00 20.8 17 Noroeste 26 Noroeste 0 -- -- 51
2017-07-24 03:00:00 22 18 Noroeste 25 Oeste 0 -- -- 46
2017-07-24 02:00:00 22.2 16 Noroeste 23 Noroeste 0 -- -- 41
2017-07-24 01:00:00 24.2 15 Noroeste 22 Noroeste 0 -- -- 34
2017-07-24 00:00:00 24.5 7 Noroeste 11 Oeste 0 -- -- 29
2017-07-23 23:00:00 25.6 6 Noroeste 11 Noroeste 0 -- -- 24
2017-07-23 22:00:00 28.5 6 Noroeste 24 Noroeste 0 -- -- 20
2017-07-23 21:00:00 31.6 17 Noroeste 30 Noroeste 0 -- -- 19
2017-07-23 20:00:00 33.3 17 Noroeste 27 Noroeste 0 -- -- 18
2017-07-23 19:00:00 33.9 12 Noroeste 30 Noroeste 0 -- -- 18
2017-07-23 18:00:00 34 17 Noroeste 31 Oeste 0 -- -- 18
2017-07-23 17:00:00 33.8 13 Noroeste 28 Noroeste 0 -- -- 18
2017-07-23 16:00:00 33.4 12 Noroeste 26 Noroeste 0 -- -- 18
2017-07-23 15:00:00 32.4 9 Noroeste 23 Oeste 0 -- -- 20
2017-07-23 14:00:00 31.5 5 Oeste 26 Noroeste 0 -- -- 21
2017-07-23 13:00:00 30.8 10 Norte 21 Noroeste 0 -- -- 25
2017-07-23 12:00:00 28.7 6 Noroeste 15 Noroeste 0 -- -- 28
2017-07-23 11:00:00 26.2 5 Noroeste 12 Noroeste 0 -- -- 40
2017-07-23 10:00:00 22.5 6 Oeste 12 Noroeste 0 -- -- 51
2017-07-23 09:00:00 18.9 8 Noroeste 11 Noroeste 0 -- -- 62
2017-07-23 08:00:00 15.7 8 Noroeste 12 Oeste 0 -- -- 70
2017-07-23 07:00:00 16.4 6 Oeste 12 Noroeste 0 -- -- 68
2017-07-23 06:00:00 17.5 8 Oeste 21 Oeste 0 -- -- 65
2017-07-23 05:00:00 18.5 11 Oeste 19 Oeste 0 -- -- 62
2017-07-23 04:00:00 18.7 11 Noroeste 23 Oeste 0 -- -- 57
2017-07-23 03:00:00 20.2 16 Noroeste 26 Noroeste 0 -- -- 52
2017-07-23 02:00:00 20.9 14 Noroeste 22 Noroeste 0 -- -- 43
2017-07-23 01:00:00 23.1 8 Oeste 11 Oeste 0 -- -- 31
2017-07-23 00:00:00 23.5 6 Noroeste 10 Oeste 0 -- -- 31